Time;durP1;ratioP1;P1;durP2;ratioP2;P2;SDS_P1;SDS_P2;PMS_P1;PMS_P2;Temp;Humidity;BMP_temperature;BMP_pressure;BME280_temperature;BME280_humidity;BME280_pressure;Samples;Min_cycle;Max_cycle;Signal;HPM_P1;HPM_P2
2020/12/03 00:01:19;;;;;;;140.95;48.53;;;-2.80;99.90;;;;;;5007395;28;20596;-76
2020/12/03 00:03:53;;;;;;;141.15;51.60;;;-2.70;99.90;;;;;;5007473;28;20030;-75
2020/12/03 00:06:27;;;;;;;137.65;49.38;;;-2.60;99.90;;;;;;5010708;28;20116;-75
2020/12/03 00:08:59;;;;;;;133.40;50.55;;;-2.50;99.90;;;;;;5010649;28;20112;-75
2020/12/03 00:11:31;;;;;;;136.07;49.72;;;-2.50;99.90;;;;;;5013820;28;20038;-75
2020/12/03 00:13:57;;;;;;;130.77;48.10;;;-2.50;99.90;;;;;;5002172;28;20443;-75
2020/12/03 00:16:26;;;;;;;141.10;49.75;;;-2.50;99.90;;;;;;5014192;28;20117;-75
2020/12/03 00:18:52;;;;;;;132.02;47.05;;;-2.40;99.90;;;;;;5015232;28;20076;-75
2020/12/03 00:21:30;;;;;;;129.63;49.30;;;-2.30;99.90;;;;;;5003532;28;20029;-75
2020/12/03 00:23:56;;;;;;;138.20;48.35;;;-2.30;99.90;;;;;;5001867;28;20092;-75
2020/12/03 00:26:26;;;;;;;141.50;48.70;;;-2.20;99.90;;;;;;5004096;28;20041;-75
2020/12/03 00:28:51;;;;;;;124.47;47.67;;;-2.20;99.90;;;;;;5014774;28;20053;-75
2020/12/03 00:31:17;;;;;;;138.13;48.75;;;-2.20;99.90;;;;;;5004685;28;20038;-76
2020/12/03 00:33:42;;;;;;;131.75;47.30;;;-2.10;99.90;;;;;;5014053;28;20036;-75
2020/12/03 00:36:08;;;;;;;131.27;49.42;;;-2.10;99.90;;;;;;5014141;28;20148;-75
2020/12/03 00:38:34;;;;;;;137.07;48.65;;;-2.10;99.90;;;;;;4997736;28;20026;-76
2020/12/03 00:40:59;;;;;;;124.57;47.22;;;-2.10;99.90;;;;;;4998051;28;20490;-75
2020/12/03 00:43:25;;;;;;;123.28;44.88;;;-2.00;99.90;;;;;;4998484;28;20030;-75
2020/12/03 00:45:51;;;;;;;125.90;47.22;;;-2.00;99.90;;;;;;5013245;28;20128;-75
2020/12/03 00:48:17;;;;;;;119.85;45.92;;;-2.10;99.90;;;;;;4998700;28;20068;-75
2020/12/03 00:50:44;;;;;;;125.57;47.75;;;-2.10;99.90;;;;;;5006613;28;20075;-75
2020/12/03 00:53:10;;;;;;;118.07;46.60;;;-2.00;99.90;;;;;;5017555;28;20029;-75
2020/12/03 00:55:36;;;;;;;130.88;47.42;;;-2.10;99.90;;;;;;5016425;28;20477;-75
2020/12/03 00:58:03;;;;;;;121.57;45.88;;;-2.00;99.90;;;;;;5016715;28;20033;-75
2020/12/03 01:00:29;;;;;;;122.20;45.75;;;-2.10;99.90;;;;;;5014143;28;20767;-75
2020/12/03 01:02:55;;;;;;;127.40;48.08;;;-2.00;99.90;;;;;;5014439;28;20029;-75
2020/12/03 01:05:21;;;;;;;120.93;46.05;;;-2.00;99.90;;;;;;5016153;28;20101;-75
2020/12/03 01:07:46;;;;;;;125.75;47.53;;;-2.00;99.90;;;;;;5017984;28;20040;-75
2020/12/03 01:10:24;;;;;;;122.47;45.35;;;-2.00;99.90;;;;;;5022021;28;20026;-75
2020/12/03 01:12:51;;;;;;;123.53;45.45;;;-2.00;99.90;;;;;;5021943;28;20029;-75
2020/12/03 01:15:17;;;;;;;121.93;44.30;;;-1.90;99.90;;;;;;5009741;28;20034;-76
2020/12/03 01:17:44;;;;;;;121.00;44.92;;;-1.90;99.90;;;;;;5001542;28;20037;-75
2020/12/03 01:20:18;;;;;;;119.60;44.92;;;-1.90;99.90;;;;;;5002303;28;20491;-75
2020/12/03 01:22:44;;;;;;;123.57;44.95;;;-1.90;99.90;;;;;;5002374;28;20044;-75
2020/12/03 01:25:11;;;;;;;118.00;45.30;;;-2.00;99.90;;;;;;5021952;28;20042;-75
2020/12/03 01:27:37;;;;;;;127.55;44.85;;;-2.00;99.90;;;;;;5014372;28;20120;-75
2020/12/03 01:30:07;;;;;;;125.93;46.95;;;-1.90;99.90;;;;;;5001738;28;20042;-75
2020/12/03 01:32:33;;;;;;;122.90;44.05;;;-1.90;99.90;;;;;;5010537;28;20037;-75
2020/12/03 01:34:58;;;;;;;113.85;43.85;;;-1.90;99.90;;;;;;5019850;28;20037;-75
2020/12/03 01:37:24;;;;;;;119.20;44.40;;;-1.90;99.90;;;;;;5018279;28;20054;-75
2020/12/03 01:39:50;;;;;;;115.13;43.80;;;-1.90;99.90;;;;;;5020996;28;20030;-75
2020/12/03 01:42:16;;;;;;;121.70;45.45;;;-2.00;99.90;;;;;;5016977;28;20068;-75
2020/12/03 01:44:54;;;;;;;120.75;44.15;;;-2.00;99.90;;;;;;5009895;28;20036;-75
2020/12/03 01:47:29;;;;;;;121.55;44.92;;;-2.00;99.90;;;;;;5001299;28;20084;-75
2020/12/03 01:49:55;;;;;;;;;;;-1.90;99.90;;;;;;5001832;28;20038;-76
2020/12/03 01:52:21;;;;;;;124.85;44.38;;;-2.00;99.90;;;;;;5000370;28;20644;-75
2020/12/03 01:54:47;;;;;;;123.25;44.83;;;-2.00;99.90;;;;;;5002247;28;20224;-75
2020/12/03 01:57:12;;;;;;;121.60;46.33;;;-2.00;99.90;;;;;;5020491;28;20172;-76
2020/12/03 01:59:47;;;;;;;116.47;44.15;;;-2.10;99.90;;;;;;5013318;28;20037;-76
2020/12/03 02:02:15;;;;;;;118.43;44.20;;;-2.10;99.90;;;;;;5001609;28;20121;-76
2020/12/03 02:04:41;;;;;;;118.57;44.78;;;-2.00;99.90;;;;;;5001377;28;20034;-75
2020/12/03 02:07:10;;;;;;;115.32;42.72;;;-2.10;99.90;;;;;;5001204;28;20040;-75
2020/12/03 02:09:36;;;;;;;129.40;44.88;;;-2.10;99.90;;;;;;5015741;28;20061;-75
2020/12/03 02:12:02;;;;;;;126.50;45.35;;;-2.10;99.90;;;;;;5020647;28;20136;-75
2020/12/03 02:14:28;;;;;;;129.23;45.03;;;-2.10;99.90;;;;;;5020620;28;20043;-76
2020/12/03 02:16:54;;;;;;;134.55;46.60;;;-2.10;99.90;;;;;;5020922;28;20351;-75
2020/12/03 02:19:32;;;;;;;125.18;47.05;;;-2.20;99.90;;;;;;5013985;28;20030;-76
2020/12/03 02:22:04;;;;;;;132.98;46.72;;;-2.20;99.90;;;;;;5001183;28;20037;-75
2020/12/03 02:24:35;;;;;;;127.28;47.03;;;-2.10;99.90;;;;;;5001186;28;20061;-75
2020/12/03 02:27:01;;;;;;;126.57;45.35;;;-2.20;99.90;;;;;;5000665;28;20030;-75
2020/12/03 02:29:27;;;;;;;129.43;46.35;;;-2.20;99.90;;;;;;5001195;28;20450;-75
2020/12/03 02:31:53;;;;;;;139.13;47.88;;;-2.10;99.90;;;;;;5001370;28;20121;-75
2020/12/03 02:34:19;;;;;;;129.43;46.40;;;-2.10;99.90;;;;;;5012791;28;20037;-74
2020/12/03 02:36:52;;;;;;;128.35;46.55;;;-2.10;99.90;;;;;;5002566;28;20038;-75
2020/12/03 02:39:19;;;;;;;132.05;45.50;;;-2.20;99.90;;;;;;5019315;28;20139;-75
2020/12/03 02:41:45;;;;;;;133.75;46.35;;;-2.20;99.90;;;;;;5019485;28;20017;-75
2020/12/03 02:44:10;;;;;;;134.38;46.47;;;-2.20;99.90;;;;;;5019520;28;20047;-76
2020/12/03 02:46:36;;;;;;;131.90;45.97;;;-2.20;99.90;;;;;;5003957;28;20451;-75
2020/12/03 02:49:02;;;;;;;134.65;46.55;;;-2.10;99.90;;;;;;4999129;28;20387;-75
2020/12/03 02:51:27;;;;;;;127.07;45.65;;;-2.10;99.90;;;;;;5007980;28;20041;-75
2020/12/03 02:53:53;;;;;;;127.43;45.97;;;-2.20;99.90;;;;;;5007453;28;20107;-75
2020/12/03 02:56:19;;;;;;;129.02;45.83;;;-2.20;99.90;;;;;;5007716;28;20034;-75
2020/12/03 02:58:44;;;;;;;126.25;43.63;;;-2.20;99.90;;;;;;5000195;28;20068;-74
2020/12/03 03:01:10;;;;;;;131.40;46.38;;;-2.30;99.90;;;;;;5010293;28;20421;-76
2020/12/03 03:03:36;;;;;;;123.20;44.60;;;-2.20;99.90;;;;;;5013435;28;20121;-75
2020/12/03 03:06:02;;;;;;;124.65;45.17;;;-2.20;99.90;;;;;;5007899;28;20025;-75
2020/12/03 03:08:28;;;;;;;132.00;47.15;;;-2.20;99.90;;;;;;5007771;28;20034;-74
2020/12/03 03:10:53;;;;;;;119.55;43.55;;;-2.30;99.90;;;;;;5014828;28;20033;-74
2020/12/03 03:13:19;;;;;;;132.88;45.20;;;-2.30;99.90;;;;;;5012684;28;20033;-74
2020/12/03 03:15:45;;;;;;;125.35;44.10;;;-2.30;99.90;;;;;;5003238;28;20038;-77
2020/12/03 03:18:10;;;;;;;127.57;46.20;;;-2.40;99.90;;;;;;5019068;28;20068;-77
2020/12/03 03:20:37;;;;;;;115.45;43.13;;;-2.40;99.90;;;;;;5002899;28;20063;-76
2020/12/03 03:23:04;;;;;;;124.82;45.47;;;-2.40;99.90;;;;;;4999416;28;20034;-75
2020/12/03 03:25:30;;;;;;;117.47;43.72;;;-2.40;99.90;;;;;;5006002;28;20037;-76
2020/12/03 03:27:55;;;;;;;135.40;46.30;;;-2.40;99.90;;;;;;5014838;28;20025;-76
2020/12/03 03:30:22;;;;;;;123.80;45.88;;;-2.40;99.90;;;;;;5017641;28;20544;-73
2020/12/03 03:32:48;;;;;;;129.02;46.97;;;-2.50;99.90;;;;;;5010770;28;20025;-76
2020/12/03 03:35:17;;;;;;;121.15;42.88;;;-2.40;99.90;;;;;;5018637;28;20768;-76
2020/12/03 03:37:43;;;;;;;125.88;43.63;;;-2.40;99.90;;;;;;5018670;28;20072;-75
2020/12/03 03:40:08;;;;;;;125.88;45.55;;;-2.40;99.90;;;;;;5017331;28;20140;-76
2020/12/03 03:42:34;;;;;;;130.90;44.72;;;-2.40;99.90;;;;;;5018034;28;20029;-76
2020/12/03 03:45:00;;;;;;;127.85;44.95;;;-2.40;99.90;;;;;;5018266;28;20033;-76
2020/12/03 03:47:26;;;;;;;127.32;42.58;;;-2.30;99.90;;;;;;5017388;28;20546;-76
2020/12/03 03:49:52;;;;;;;124.63;44.97;;;-2.30;99.90;;;;;;5008440;28;20072;-76
2020/12/03 03:52:18;;;;;;;127.15;43.70;;;-2.30;99.90;;;;;;4998533;28;20030;-76
2020/12/03 03:54:43;;;;;;;117.65;42.17;;;-2.20;99.90;;;;;;4998656;28;20490;-76
2020/12/03 03:57:09;;;;;;;116.75;42.40;;;-2.30;99.90;;;;;;4998262;28;20044;-75
2020/12/03 03:59:36;;;;;;;121.30;43.33;;;-2.20;99.90;;;;;;5004742;28;20727;-75
2020/12/03 04:02:01;;;;;;;120.25;42.83;;;-2.20;99.90;;;;;;5016057;28;20361;-77
2020/12/03 04:04:27;;;;;;;114.88;43.67;;;-2.20;99.90;;;;;;5017658;28;20033;-77
2020/12/03 04:06:53;;;;;;;127.38;44.45;;;-2.20;99.90;;;;;;5017481;28;20030;-77
2020/12/03 04:09:18;;;;;;;126.03;44.90;;;-2.10;99.90;;;;;;5017142;28;20041;-77
2020/12/03 04:11:44;;;;;;;120.35;44.50;;;-2.20;99.90;;;;;;5016696;28;20104;-75
2020/12/03 04:14:11;;;;;;;126.18;43.53;;;-2.20;99.90;;;;;;5006718;28;20025;-76
2020/12/03 04:16:37;;;;;;;117.90;43.72;;;-2.10;99.90;;;;;;4998591;28;20549;-77
2020/12/03 04:19:03;;;;;;;124.53;43.50;;;-2.10;99.90;;;;;;4997089;28;20040;-76
2020/12/03 04:21:29;;;;;;;121.07;43.15;;;-2.20;99.90;;;;;;5004957;28;20030;-77
2020/12/03 04:23:55;;;;;;;114.03;42.72;;;-2.10;99.90;;;;;;5004426;28;20398;-77
2020/12/03 04:26:20;;;;;;;123.72;43.25;;;-2.20;99.90;;;;;;5013652;28;20041;-75
2020/12/03 04:28:46;;;;;;;123.60;43.80;;;-2.20;99.90;;;;;;4998595;28;20029;-75
2020/12/03 04:31:12;;;;;;;107.22;42.20;;;-2.20;99.90;;;;;;4998165;28;20723;-75
2020/12/03 04:33:38;;;;;;;116.85;42.65;;;-2.20;99.90;;;;;;4998955;28;20061;-75
2020/12/03 04:36:04;;;;;;;110.25;41.58;;;-2.10;99.90;;;;;;4997720;28;20570;-76
2020/12/03 04:38:30;;;;;;;117.60;43.63;;;-2.10;99.90;;;;;;4998093;28;20057;-75
2020/12/03 04:40:57;;;;;;;123.20;42.95;;;-2.10;99.90;;;;;;4997154;28;20124;-76
2020/12/03 04:43:43;;;;;;;119.53;41.85;;;-2.10;99.90;;;;;;4996907;28;20034;-76
2020/12/03 04:46:36;;;;;;;116.75;42.60;;;-2.10;99.90;;;;;;4995629;28;20042;-76
2020/12/03 04:49:30;;;;;;;124.10;43.00;;;-2.00;99.90;;;;;;4997698;28;20145;-76
2020/12/03 04:52:05;;;;;;;120.20;42.75;;;-2.00;99.90;;;;;;4999054;28;20038;-76
2020/12/03 04:55:08;;;;;;;115.45;41.75;;;-2.00;99.90;;;;;;5016091;28;20037;-76
2020/12/03 04:57:42;;;;;;;110.93;41.22;;;-2.00;99.90;;;;;;5013126;28;20029;-76
2020/12/03 05:00:38;;;;;;;109.47;41.03;;;-2.00;99.90;;;;;;5017604;28;20037;-75
2020/12/03 05:03:10;;;;;;;;;;;-2.00;99.90;;;;;;5016120;28;20073;-76
2020/12/03 05:05:54;;;;;;;116.00;41.42;;;-1.90;99.90;;;;;;5018369;28;19913;-75
2020/12/03 05:08:47;;;;;;;106.18;42.03;;;-2.00;99.90;;;;;;4989565;28;21039;-76
2020/12/03 05:11:30;;;;;;;108.78;41.25;;;-1.90;99.90;;;;;;5010063;28;20065;-76
2020/12/03 05:14:03;;;;;;;101.47;40.20;;;-1.90;99.90;;;;;;5016371;28;20559;-75
2020/12/03 05:16:33;;;;;;;108.65;41.33;;;-1.90;99.90;;;;;;5002836;28;20042;-75
2020/12/03 05:19:03;;;;;;;111.47;41.83;;;-1.90;99.90;;;;;;5014173;28;20544;-75
2020/12/03 05:21:32;;;;;;;107.50;39.95;;;-1.90;99.90;;;;;;4998477;28;20042;-76
2020/12/03 05:23:58;;;;;;;104.80;40.47;;;-1.80;99.90;;;;;;4997833;28;20756;-75
2020/12/03 05:26:32;;;;;;;112.80;42.00;;;-1.90;99.90;;;;;;5003006;28;20118;-75
2020/12/03 05:29:08;;;;;;;112.32;42.70;;;-1.80;99.90;;;;;;4998971;28;20689;-75
2020/12/03 05:31:43;;;;;;;109.25;40.38;;;-1.80;99.90;;;;;;4997328;28;20886;-75
2020/12/03 05:34:12;;;;;;;112.90;43.00;;;-1.80;99.90;;;;;;5012339;28;20046;-75
2020/12/03 05:36:44;;;;;;;117.78;42.35;;;-1.80;99.90;;;;;;5016047;28;20145;-77
2020/12/03 05:39:15;;;;;;;114.03;40.92;;;-1.80;99.90;;;;;;5016906;28;20384;-78
2020/12/03 05:41:47;;;;;;;101.55;39.88;;;-1.80;99.90;;;;;;5017490;28;20202;-78
2020/12/03 05:44:41;;;;;;;110.70;41.35;;;-1.80;99.90;;;;;;5017067;28;20547;-75
2020/12/03 05:47:24;;;;;;;106.93;39.67;;;-1.80;99.90;;;;;;5016570;28;20045;-77
2020/12/03 05:50:04;;;;;;;111.53;40.58;;;-1.80;99.90;;;;;;5016728;28;20029;-76
2020/12/03 05:52:31;;;;;;;111.00;42.22;;;-1.80;99.90;;;;;;5016564;28;20037;-76
2020/12/03 05:55:09;;;;;;;110.25;41.55;;;-1.70;99.90;;;;;;5017530;28;20449;-77
2020/12/03 05:57:39;;;;;;;104.75;39.50;;;-1.70;99.90;;;;;;5018612;28;20099;-76
2020/12/03 06:00:14;;;;;;;112.15;43.40;;;-1.70;99.90;;;;;;5018516;28;20109;-77
2020/12/03 06:03:07;;;;;;;102.47;40.08;;;-1.70;99.90;;;;;;5020004;28;20057;-76
2020/12/03 06:05:52;;;;;;;104.00;39.72;;;-1.70;99.90;;;;;;5015764;28;20025;-77
2020/12/03 06:08:33;;;;;;;99.60;39.53;;;-1.60;99.90;;;;;;5023636;28;20042;-74
2020/12/03 06:11:23;;;;;;;111.13;41.63;;;-1.60;99.90;;;;;;4999842;28;20122;-74
2020/12/03 06:14:04;;;;;;;106.18;40.75;;;-1.70;99.90;;;;;;5017315;28;20040;-76
2020/12/03 06:16:41;;;;;;;102.35;38.92;;;-1.60;99.90;;;;;;5011191;28;20033;-76
2020/12/03 06:19:16;;;;;;;98.30;40.15;;;-1.60;99.90;;;;;;5007985;28;20561;-75
2020/12/03 06:22:01;;;;;;;78.78;30.10;;;-1.70;99.90;;;;;;5019694;28;20088;-76
2020/12/03 06:25:16;;;;;;;99.78;40.42;;;-1.60;99.90;;;;;;5006687;28;20049;-75
2020/12/03 06:28:02;;;;;;;100.30;37.35;;;-1.60;99.90;;;;;;5015839;28;20087;-76
2020/12/03 06:30:37;;;;;;;97.05;37.58;;;-1.60;99.90;;;;;;5002056;28;20052;-68
2020/12/03 06:33:14;;;;;;;101.78;39.05;;;-1.50;99.90;;;;;;5007588;28;20475;-67
2020/12/03 06:35:43;;;;;;;99.85;39.45;;;-1.50;99.90;;;;;;4997878;28;20073;-68
2020/12/03 06:38:41;;;;;;;92.97;38.00;;;-1.50;99.90;;;;;;5006710;28;20038;-68
2020/12/03 06:41:41;;;;;;;100.28;39.35;;;-1.50;99.90;;;;;;5005282;28;20037;-67
2020/12/03 06:44:16;;;;;;;99.93;39.55;;;-1.50;99.90;;;;;;5007878;28;20530;-69
2020/12/03 06:47:21;;;;;;;101.37;37.93;;;-1.50;99.90;;;;;;5007242;28;20444;-68
2020/12/03 06:50:26;;;;;;;102.10;38.78;;;-1.50;99.90;;;;;;5007730;28;20112;-68
2020/12/03 06:53:18;;;;;;;97.07;38.53;;;-1.50;99.90;;;;;;5009680;28;20042;-68
2020/12/03 06:55:59;;;;;;;89.40;36.15;;;-1.40;99.90;;;;;;5005851;28;20048;-68
2020/12/03 06:58:53;;;;;;;101.68;39.58;;;-1.50;99.90;;;;;;5004595;28;20041;-68
2020/12/03 07:01:56;;;;;;;98.88;37.92;;;-1.50;99.90;;;;;;5011306;28;20034;-68
2020/12/03 07:04:59;;;;;;;93.18;36.05;;;-1.40;99.90;;;;;;5018421;28;20805;-68
2020/12/03 07:07:47;;;;;;;90.93;34.78;;;-1.40;99.90;;;;;;5007995;28;20045;-69
2020/12/03 07:10:44;;;;;;;95.90;37.35;;;-1.40;99.90;;;;;;5008509;28;20045;-68
2020/12/03 07:13:35;;;;;;;90.88;35.90;;;-1.40;99.90;;;;;;5005081;28;20038;-69
2020/12/03 07:16:35;;;;;;;94.13;36.25;;;-1.30;99.90;;;;;;5011693;28;20041;-68
2020/12/03 07:19:39;;;;;;;96.13;34.95;;;-1.40;99.90;;;;;;5005055;28;20034;-69
2020/12/03 07:22:11;;;;;;;90.63;35.20;;;-1.40;99.90;;;;;;5007856;28;20107;-69
2020/12/03 07:24:40;;;;;;;94.82;35.63;;;-1.30;99.90;;;;;;5002963;28;20029;-69
2020/12/03 07:27:10;;;;;;;91.85;35.13;;;-1.40;99.90;;;;;;5006359;28;20030;-70
2020/12/03 07:29:45;;;;;;;90.07;36.22;;;-1.30;99.90;;;;;;5006026;28;20095;-70
2020/12/03 07:32:56;;;;;;;84.25;33.47;;;-1.20;99.90;;;;;;5021231;28;20037;-69
2020/12/03 07:35:35;;;;;;;88.13;32.50;;;-1.20;99.90;;;;;;5013766;28;20099;-70
2020/12/03 07:38:34;;;;;;;86.60;34.22;;;-1.20;99.90;;;;;;4997191;28;20034;-70
2020/12/03 07:41:00;;;;;;;86.95;34.15;;;-1.20;99.90;;;;;;4987384;28;20480;-70
2020/12/03 07:43:38;;;;;;;97.70;35.13;;;-1.20;99.90;;;;;;5003993;28;20025;-69
2020/12/03 07:46:28;;;;;;;81.32;32.75;;;-1.10;99.90;;;;;;5006302;28;20041;-69
2020/12/03 07:48:56;;;;;;;89.18;34.97;;;-1.20;99.90;;;;;;5006051;28;20040;-69
2020/12/03 07:51:23;;;;;;;86.50;33.67;;;-1.10;99.90;;;;;;5010922;28;20034;-68
2020/12/03 07:54:17;;;;;;;83.38;33.20;;;-1.20;99.90;;;;;;5013717;28;20044;-69
2020/12/03 07:56:46;;;;;;;85.47;33.20;;;-1.20;99.90;;;;;;5007592;28;20799;-68
2020/12/03 07:59:24;;;;;;;90.10;34.60;;;-1.10;99.90;;;;;;5005580;28;20049;-68
2020/12/03 08:01:55;;;;;;;85.47;32.50;;;-1.00;99.90;;;;;;5013145;28;20026;-69
2020/12/03 08:04:22;;;;;;;89.93;35.45;;;-1.00;99.90;;;;;;5005937;28;20053;-68
2020/12/03 08:07:13;;;;;;;87.38;33.58;;;-0.90;99.90;;;;;;5005817;28;20033;-68
2020/12/03 08:09:42;;;;;;;84.75;32.30;;;-0.90;99.90;;;;;;5016170;28;20455;-68
2020/12/03 08:12:14;;;;;;;75.47;31.60;;;-0.90;99.90;;;;;;5006060;28;20038;-68
2020/12/03 08:14:48;;;;;;;87.60;33.72;;;-0.80;99.90;;;;;;5004332;28;20073;-68
2020/12/03 08:17:17;;;;;;;85.23;33.47;;;-0.80;99.90;;;;;;5010149;28;20866;-68
2020/12/03 08:19:45;;;;;;;80.30;32.22;;;-0.70;99.90;;;;;;5009528;28;20032;-68
2020/12/03 08:22:34;;;;;;;83.70;32.67;;;-0.70;99.90;;;;;;5005785;28;20034;-68
2020/12/03 08:25:08;;;;;;;77.45;31.45;;;-0.70;99.90;;;;;;5008662;28;20030;-68
2020/12/03 08:27:35;;;;;;;77.75;31.13;;;-0.70;99.90;;;;;;5008781;28;20057;-68
2020/12/03 08:30:00;;;;;;;80.15;32.33;;;-0.70;99.90;;;;;;4999966;28;20041;-68
2020/12/03 08:32:53;;;;;;;82.25;32.90;;;-0.60;99.90;;;;;;5016607;28;20026;-68
2020/12/03 08:35:19;;;;;;;78.05;29.83;;;-0.60;99.90;;;;;;5005659;28;20490;-71
2020/12/03 08:37:47;;;;;;;72.38;30.70;;;-0.60;99.90;;;;;;5016946;28;20081;-69
2020/12/03 08:40:12;;;;;;;72.30;30.15;;;-0.50;99.90;;;;;;5004885;28;20034;-68
2020/12/03 08:42:38;;;;;;;77.93;31.65;;;-0.50;99.90;;;;;;4997162;28;20061;-69
2020/12/03 08:45:04;;;;;;;80.55;31.42;;;-0.40;99.90;;;;;;5007381;28;20037;-68
2020/12/03 08:47:46;;;;;;;75.60;30.92;;;-0.40;99.90;;;;;;5002254;28;20079;-69
2020/12/03 08:50:15;;;;;;;81.47;32.65;;;-0.40;99.90;;;;;;5004114;28;20462;-69
2020/12/03 08:52:42;;;;;;;72.60;29.63;;;-0.40;99.90;;;;;;5005507;28;20045;-68
2020/12/03 08:55:10;;;;;;;75.40;30.90;;;-0.30;99.90;;;;;;5008794;28;20063;-70
2020/12/03 08:57:37;;;;;;;80.38;30.95;;;-0.40;99.90;;;;;;5006075;28;20063;-70
2020/12/03 09:00:07;;;;;;;77.18;30.98;;;-0.40;99.90;;;;;;5005538;28;20080;-69
2020/12/03 09:02:33;;;;;;;78.55;32.15;;;-0.40;99.90;;;;;;5011447;28;20070;-69
2020/12/03 09:05:00;;;;;;;75.60;30.33;;;-0.30;99.90;;;;;;5013761;28;20048;-68
2020/12/03 09:07:39;;;;;;;80.22;31.52;;;-0.30;99.90;;;;;;5005743;28;20033;-68
2020/12/03 09:10:07;;;;;;;78.18;30.63;;;-0.20;99.90;;;;;;5020245;28;20154;-69
2020/12/03 09:12:34;;;;;;;74.00;30.25;;;-0.30;99.90;;;;;;5004722;28;20491;-69
2020/12/03 09:15:03;;;;;;;74.43;30.15;;;-0.30;99.90;;;;;;5016340;28;20036;-69
2020/12/03 09:17:32;;;;;;;72.85;30.88;;;-0.20;99.90;;;;;;5003234;28;20042;-69
2020/12/03 09:20:06;;;;;;;77.68;30.20;;;-0.20;99.90;;;;;;5005337;28;20045;-69
2020/12/03 09:22:35;;;;;;;76.10;30.83;;;-0.10;99.90;;;;;;5004867;28;20404;-69
2020/12/03 09:25:04;;;;;;;73.93;31.48;;;-0.10;99.90;;;;;;5006534;28;20751;-68
2020/12/03 09:27:33;;;;;;;70.93;28.35;;;-0.10;99.90;;;;;;5005545;28;20708;-68
2020/12/03 09:30:03;;;;;;;77.53;31.80;;;0.00;99.90;;;;;;5008248;28;20118;-69
2020/12/03 09:32:30;;;;;;;68.30;30.15;;;0.00;99.90;;;;;;5013523;28;20037;-69
2020/12/03 09:35:00;;;;;;;69.32;29.20;;;0.00;99.90;;;;;;5020256;28;20683;-69
2020/12/03 09:37:28;;;;;;;77.07;32.08;;;0.00;99.90;;;;;;5016602;28;20124;-69
2020/12/03 09:39:54;;;;;;;77.47;31.85;;;-0.10;99.90;;;;;;5008471;28;20819;-69
2020/12/03 09:42:21;;;;;;;75.18;31.08;;;0.00;99.90;;;;;;5008902;28;20021;-68
2020/12/03 09:44:57;;;;;;;71.82;29.48;;;0.00;99.90;;;;;;5009284;28;20045;-68
2020/12/03 09:47:29;;;;;;;70.57;28.90;;;0.00;99.90;;;;;;5012661;28;20034;-68
2020/12/03 09:49:55;;;;;;;78.00;30.27;;;0.10;99.90;;;;;;5003224;28;20057;-68
2020/12/03 09:52:22;;;;;;;67.75;27.38;;;0.20;99.90;;;;;;5014445;28;20660;-68
2020/12/03 09:54:48;;;;;;;73.53;28.42;;;0.20;99.90;;;;;;5000914;28;20052;-68
2020/12/03 09:57:14;;;;;;;72.50;29.80;;;0.20;99.90;;;;;;5009904;28;20047;-68
2020/12/03 09:59:40;;;;;;;68.05;28.60;;;0.10;99.90;;;;;;5011975;28;20029;-68
2020/12/03 10:02:12;;;;;;;63.28;28.35;;;0.10;99.90;;;;;;4991694;28;20034;-68
2020/12/03 10:05:15;;;;;;;64.22;27.30;;;0.20;99.90;;;;;;5008734;28;20759;-71
2020/12/03 10:08:20;;;;;;;73.20;26.70;;;0.20;99.90;;;;;;5012590;28;20044;-69
2020/12/03 10:11:09;;;;;;;66.50;26.70;;;0.20;99.90;;;;;;5008934;28;20124;-67
2020/12/03 10:14:12;;;;;;;70.75;28.40;;;0.20;99.90;;;;;;5008823;28;20034;-68
2020/12/03 10:16:43;;;;;;;69.10;28.88;;;0.20;99.90;;;;;;5008606;28;20045;-70
2020/12/03 10:19:11;;;;;;;63.03;26.67;;;0.10;99.90;;;;;;5008155;28;20080;-69
2020/12/03 10:21:51;;;;;;;65.90;28.42;;;0.10;99.90;;;;;;5008754;28;20033;-70
2020/12/03 10:24:22;;;;;;;75.30;28.75;;;0.10;99.90;;;;;;5008862;28;20030;-70
2020/12/03 10:27:02;;;;;;;65.20;27.00;;;0.20;99.90;;;;;;5016176;28;20037;-68
2020/12/03 10:29:31;;;;;;;73.90;28.38;;;0.20;99.90;;;;;;5006149;28;20037;-68
2020/12/03 10:31:58;;;;;;;65.05;27.92;;;0.10;99.90;;;;;;5008000;28;20041;-68
2020/12/03 10:34:25;;;;;;;66.60;27.30;;;0.10;99.90;;;;;;5013894;28;20076;-68
2020/12/03 10:36:52;;;;;;;62.33;26.80;;;0.20;99.90;;;;;;5010904;28;20038;-68
2020/12/03 10:39:19;;;;;;;65.72;27.98;;;0.20;99.90;;;;;;5004811;28;20539;-68
2020/12/03 10:41:53;;;;;;;67.35;27.63;;;0.20;99.90;;;;;;5010682;28;20707;-67
2020/12/03 10:44:21;;;;;;;73.60;29.10;;;0.30;99.90;;;;;;5008020;28;20069;-69
2020/12/03 10:46:53;;;;;;;69.10;28.55;;;0.20;99.90;;;;;;5008946;28;20038;-68
2020/12/03 10:49:23;;;;;;;68.22;27.73;;;0.20;99.90;;;;;;5011314;28;20838;-68
2020/12/03 10:51:49;;;;;;;73.25;28.13;;;0.20;99.90;;;;;;5010559;28;20037;-68
2020/12/03 10:54:19;;;;;;;67.55;27.23;;;0.30;99.90;;;;;;5008121;28;20490;-68
2020/12/03 10:56:52;;;;;;;80.43;32.97;;;0.20;99.90;;;;;;5007668;28;20042;-68
2020/12/03 10:59:25;;;;;;;68.78;27.80;;;0.30;99.90;;;;;;5006425;28;20034;-68
2020/12/03 11:01:53;;;;;;;63.20;25.65;;;0.30;99.90;;;;;;5008872;28;20099;-68
2020/12/03 11:04:20;;;;;;;61.47;26.27;;;0.20;99.90;;;;;;5011745;28;20040;-68
2020/12/03 11:06:46;;;;;;;65.22;27.10;;;0.30;99.90;;;;;;5017572;28;20048;-68
2020/12/03 11:09:21;;;;;;;65.20;26.35;;;0.30;99.90;;;;;;5007338;28;20783;-67
2020/12/03 11:11:48;;;;;;;61.85;24.80;;;0.30;99.90;;;;;;5007994;28;20080;-67
2020/12/03 11:14:16;;;;;;;61.33;25.65;;;0.30;99.90;;;;;;5006120;28;20333;-68
2020/12/03 11:16:52;;;;;;;65.15;26.42;;;0.30;99.90;;;;;;5006296;28;20109;-68
2020/12/03 11:19:19;;;;;;;60.65;24.98;;;0.40;99.90;;;;;;5004902;28;20115;-67
2020/12/03 11:22:13;;;;;;;67.30;26.85;;;0.40;99.90;;;;;;4998235;28;20036;-67
2020/12/03 11:24:52;;;;;;;61.80;26.33;;;0.40;99.90;;;;;;5003770;28;20510;-67
2020/12/03 11:27:24;;;;;;;61.15;25.70;;;0.50;99.90;;;;;;5007372;28;20041;-68
2020/12/03 11:29:50;;;;;;;64.72;24.77;;;0.50;99.90;;;;;;5008286;28;20030;-67
2020/12/03 11:32:24;;;;;;;62.78;26.35;;;0.40;99.90;;;;;;5010406;28;20453;-68
2020/12/03 11:34:50;;;;;;;64.53;27.10;;;0.50;99.90;;;;;;5009764;28;20060;-67
2020/12/03 11:37:26;;;;;;;61.17;26.27;;;0.50;99.90;;;;;;5007156;28;20405;-69
2020/12/03 11:40:07;;;;;;;66.63;26.13;;;0.50;99.90;;;;;;5008149;28;20038;-67
2020/12/03 11:42:47;;;;;;;61.70;24.65;;;0.60;99.90;;;;;;5013838;28;20034;-67
2020/12/03 11:50:24;;;;;;;64.88;26.15;;;0.60;99.90;;;;;;5003017;28;20871;-71
2020/12/03 11:52:50;;;;;;;62.53;24.20;;;0.60;99.90;;;;;;5001766;28;20076;-67
2020/12/03 11:55:23;;;;;;;54.83;23.08;;;0.60;99.90;;;;;;5013062;28;20124;-67
2020/12/03 11:57:50;;;;;;;65.30;25.35;;;0.60;99.90;;;;;;4999098;28;20060;-67
2020/12/03 12:00:21;;;;;;;55.30;23.35;;;0.60;99.90;;;;;;5014028;28;20112;-67
2020/12/03 12:02:51;;;;;;;63.75;25.13;;;0.70;99.90;;;;;;4988367;28;20088;-68
2020/12/03 12:08:35;;;;;;;60.00;25.55;;;0.70;99.90;;;;;;5007033;28;20056;-67
2020/12/03 12:13:27;;;;;;;62.63;24.95;;;0.90;99.90;;;;;;5006632;28;20672;-67
2020/12/03 12:15:53;;;;;;;60.72;25.30;;;0.80;99.90;;;;;;5003498;28;20651;-68
2020/12/03 12:18:18;;;;;;;62.28;25.45;;;0.80;99.90;;;;;;5012468;28;20410;-67
2020/12/03 12:20:45;;;;;;;60.53;24.05;;;0.80;99.90;;;;;;5008285;28;20107;-67
2020/12/03 12:23:11;;;;;;;60.95;24.95;;;0.80;99.90;;;;;;5009903;28;20025;-67
2020/12/03 12:25:37;;;;;;;64.22;25.27;;;0.80;99.90;;;;;;5002197;28;20040;-67
2020/12/03 12:28:03;;;;;;;59.80;25.33;;;0.80;99.90;;;;;;5006514;28;20037;-67
2020/12/03 12:30:31;;;;;;;62.50;25.25;;;0.90;99.90;;;;;;5006097;28;20144;-67
2020/12/03 12:32:57;;;;;;;60.50;24.80;;;0.90;99.90;;;;;;5006278;28;20103;-67
2020/12/03 12:35:23;;;;;;;61.40;24.98;;;1.00;99.90;;;;;;5007053;28;20038;-69
2020/12/03 12:37:49;;;;;;;59.00;25.25;;;1.00;99.90;;;;;;5014654;28;20106;-67
2020/12/03 12:40:15;;;;;;;60.25;25.38;;;1.00;99.90;;;;;;5001140;28;20029;-68
2020/12/03 12:42:40;;;;;;;61.88;24.98;;;1.00;99.90;;;;;;5018425;28;20025;-75
2020/12/03 12:45:06;;;;;;;62.08;24.85;;;1.00;99.90;;;;;;5001277;28;20393;-79
2020/12/03 12:47:32;;;;;;;61.67;24.90;;;1.10;99.90;;;;;;5010827;28;20171;-75
2020/12/03 12:49:58;;;;;;;62.75;26.80;;;1.10;99.90;;;;;;5001906;28;20033;-75
2020/12/03 12:52:24;;;;;;;63.03;25.75;;;1.10;99.90;;;;;;5013249;28;20052;-76
2020/12/03 12:54:50;;;;;;;63.72;24.85;;;1.10;99.90;;;;;;5007286;28;20033;-75
2020/12/03 12:57:15;;;;;;;58.72;25.00;;;1.10;99.90;;;;;;5013781;28;20111;-73
2020/12/03 12:59:41;;;;;;;63.38;24.83;;;1.20;99.90;;;;;;5006265;28;20044;-78
2020/12/03 13:02:07;;;;;;;66.65;26.05;;;1.40;99.90;;;;;;5017055;28;20061;-75